New London, Missouri
Current Conditions -  °F | °C
As of 6:15 PM on Sunday 25 Jan 2015 (Local Time) from KHAE Reporting Station
Overcast Overcast  
Wind Chill: 23°   Ceiling: 1400
Heat Index: 32°   Visibility: 10mi
Dew Point: 30°   Wind: 12mph
Humidity: 93%   Direction: 350°N
Pressure: 29.97"   Gusts: 18mph
Location:  39.59°N, 91.4°W
Report Text: KHAE 260015Z AUTO 35010G16KT 10SM OVC014 00/M01 A2997 RMK AO2
Loading
Personal Weather Stations






























Interactive Weather Map New forecast layout! Learn more

10-Day Weather Forecast

Advertisements
Track Severe Weather on mobile